createdAt,value
2019-05-02T00:00:03.467Z,6.2
2019-05-02T00:01:03.464Z,6.1
2019-05-02T00:02:03.103Z,6.2
2019-05-02T00:03:05.869Z,6.3
2019-05-02T00:04:03.212Z,6.4
2019-05-02T00:05:03.260Z,6.3
2019-05-02T00:06:09.412Z,6.2
2019-05-02T00:07:03.154Z,6.1
2019-05-02T00:08:03.633Z,6.1
2019-05-02T00:09:11.008Z,6.1
2019-05-02T00:10:03.398Z,6.2
2019-05-02T00:11:02.819Z,6.2
2019-05-02T00:12:02.890Z,6.1
2019-05-02T00:13:03.002Z,6.1
2019-05-02T00:14:03.715Z,6.2
2019-05-02T00:15:03.705Z,6.1
2019-05-02T00:16:02.771Z,6.1
2019-05-02T00:17:03.842Z,6.2
2019-05-02T00:18:03.556Z,6.2
2019-05-02T00:19:03.815Z,6.2
2019-05-02T00:20:03.869Z,6.2
2019-05-02T00:21:03.448Z,6.1
2019-05-02T00:22:03.504Z,6
2019-05-02T00:23:03.306Z,6.1
2019-05-02T00:24:04.359Z,6.1
2019-05-02T00:25:03.680Z,5.9
2019-05-02T00:26:03.633Z,6
2019-05-02T00:27:03.370Z,5.9
2019-05-02T00:28:03.601Z,5.9
2019-05-02T00:29:03.245Z,5.8
2019-05-02T00:30:03.459Z,5.8
2019-05-02T00:31:12.883Z,5.8
2019-05-02T00:32:03.198Z,5.8
2019-05-02T00:33:03.188Z,5.8
2019-05-02T00:34:03.010Z,5.8
2019-05-02T00:35:03.190Z,5.8
2019-05-02T00:36:02.709Z,5.7
2019-05-02T00:37:03.512Z,5.7
2019-05-02T00:38:04.009Z,5.6
2019-05-02T00:39:03.235Z,5.6
2019-05-02T00:40:03.151Z,5.6
2019-05-02T00:41:03.925Z,5.6
2019-05-02T00:42:17.488Z,5.6
2019-05-02T00:43:03.551Z,5.6
2019-05-02T00:44:12.204Z,5.6
2019-05-02T00:45:02.940Z,5.6
2019-05-02T00:46:02.891Z,5.6
2019-05-02T00:47:12.006Z,5.5
2019-05-02T00:48:02.850Z,5.5
2019-05-02T00:49:03.674Z,5.6
2019-05-02T00:50:12.546Z,5.6
2019-05-02T00:51:03.313Z,5.7
2019-05-02T00:52:03.677Z,5.6
2019-05-02T00:53:13.444Z,5.5
2019-05-02T00:54:03.416Z,5.5
2019-05-02T00:55:03.478Z,5.4
2019-05-02T00:56:10.256Z,5.4
2019-05-02T00:57:03.215Z,5.4
2019-05-02T00:58:03.421Z,5.4
2019-05-02T00:59:08.936Z,5.4
2019-05-02T01:00:03.051Z,5.4
2019-05-02T01:01:03.823Z,5.4
2019-05-02T01:02:07.310Z,5.4
2019-05-02T01:03:02.900Z,5.4
2019-05-02T01:04:03.229Z,5.4
2019-05-02T01:05:04.721Z,5.4
2019-05-02T01:06:02.939Z,5.4
2019-05-02T01:07:03.675Z,5.4
2019-05-02T01:08:03.203Z,5.4
2019-05-02T01:09:12.843Z,5.3
2019-05-02T01:10:02.944Z,5.4
2019-05-02T01:11:03.218Z,5.4
2019-05-02T01:12:10.047Z,5.4
2019-05-02T01:13:03.899Z,5.4
2019-05-02T01:14:03.804Z,5.4
2019-05-02T01:15:09.807Z,5.3
2019-05-02T01:16:03.382Z,5.3
2019-05-02T01:17:03.507Z,5.3
2019-05-02T01:18:08.108Z,5.4
2019-05-02T01:19:03.194Z,5.4
2019-05-02T01:20:03.224Z,5.3
2019-05-02T01:21:04.313Z,5.3
2019-05-02T01:22:03.408Z,5.3
2019-05-02T01:23:03.188Z,5.3
2019-05-02T01:24:04.520Z,5.3
2019-05-02T01:25:03.251Z,5.3
2019-05-02T01:26:03.130Z,5.3
2019-05-02T01:27:06.644Z,5.3
2019-05-02T01:28:03.125Z,5.3
2019-05-02T01:29:02.891Z,5.3
2019-05-02T01:30:07.514Z,5.2
2019-05-02T01:31:03.830Z,5.2
2019-05-02T01:32:02.908Z,5.1
2019-05-02T01:33:07.844Z,5.1
2019-05-02T01:34:02.954Z,5.1
2019-05-02T01:35:03.695Z,5.1
2019-05-02T01:36:08.326Z,5.1
2019-05-02T01:37:02.915Z,5.1
2019-05-02T01:38:03.451Z,5.1
2019-05-02T01:39:08.868Z,5.1
2019-05-02T01:40:03.759Z,5.1
2019-05-02T01:41:03.706Z,5
2019-05-02T01:42:05.499Z,5.1
2019-05-02T01:43:03.552Z,5.1
2019-05-02T01:44:03.472Z,5.1
2019-05-02T01:45:12.502Z,5
2019-05-02T01:46:03.645Z,5
2019-05-02T01:47:03.495Z,4.9
2019-05-02T01:48:09.878Z,4.9
2019-05-02T01:49:03.089Z,4.9
2019-05-02T01:50:03.506Z,4.9
2019-05-02T01:51:12.076Z,5.1
2019-05-02T01:52:03.235Z,5.1
2019-05-02T01:53:03.189Z,5.2
2019-05-02T01:54:11.336Z,5.2
2019-05-02T01:55:03.190Z,5.2
2019-05-02T01:56:03.166Z,5.2
2019-05-02T01:57:09.904Z,5.1
2019-05-02T01:58:02.947Z,5.1
2019-05-02T01:59:03.667Z,5.1
2019-05-02T02:00:11.321Z,5.1
2019-05-02T02:01:02.749Z,4.9
2019-05-02T02:02:03.749Z,4.9
2019-05-02T02:03:10.308Z,4.8
2019-05-02T02:04:03.499Z,4.8
2019-05-02T02:05:03.758Z,4.8
2019-05-02T02:06:10.266Z,4.8
2019-05-02T02:07:03.611Z,4.9
2019-05-02T02:08:03.852Z,5
2019-05-02T02:09:09.993Z,5.1
2019-05-02T02:10:03.702Z,5.3
2019-05-02T02:11:03.229Z,5.3
2019-05-02T02:12:11.324Z,5.4
2019-05-02T02:13:05.472Z,5.5
2019-05-02T02:14:14.930Z,5.6
2019-05-02T02:15:03.196Z,5.8
2019-05-02T02:16:06.127Z,5.8
2019-05-02T02:17:03.112Z,5.9
2019-05-02T02:18:03.085Z,5.9
2019-05-02T02:19:05.491Z,5.7
2019-05-02T02:20:03.138Z,5.6
2019-05-02T02:21:03.022Z,5.8
2019-05-02T02:22:04.551Z,5.9
2019-05-02T02:23:03.786Z,5.9
2019-05-02T02:24:02.981Z,5.8
2019-05-02T02:25:03.090Z,5.8
2019-05-02T02:26:13.775Z,5.9
2019-05-02T02:27:02.640Z,5.8
2019-05-02T02:28:03.353Z,5.8
2019-05-02T02:29:09.454Z,5.8
2019-05-02T02:30:03.743Z,5.8
2019-05-02T02:31:08.060Z,5.9
2019-05-02T02:32:03.839Z,5.9
2019-05-02T02:33:10.056Z,6.1
2019-05-02T02:34:03.783Z,6.1
2019-05-02T02:35:12.633Z,6.2
2019-05-02T02:36:03.547Z,6.2
2019-05-02T02:37:15.086Z,6.3
2019-05-02T02:38:03.805Z,6.3
2019-05-02T02:39:14.618Z,6.3
2019-05-02T02:40:03.731Z,6.3
2019-05-02T02:41:15.037Z,6.3
2019-05-02T02:42:03.271Z,6.3
2019-05-02T02:43:33.824Z,6.3
2019-05-02T02:44:03.416Z,6.3
2019-05-02T02:45:03.734Z,6.3
2019-05-02T02:46:03.296Z,6.3
2019-05-02T02:47:03.009Z,6.3
2019-05-02T02:48:03.098Z,6.3
2019-05-02T02:49:03.249Z,6.3
2019-05-02T02:50:05.712Z,6.3
2019-05-02T02:51:02.914Z,6.3
2019-05-02T02:52:07.107Z,6.3
2019-05-02T02:53:03.430Z,6.4
2019-05-02T02:54:06.083Z,6.3
2019-05-02T02:55:04.047Z,6.4
2019-05-02T02:56:04.346Z,6.3
2019-05-02T02:57:03.633Z,6.3
2019-05-02T02:58:06.670Z,6.3
2019-05-02T02:59:03.512Z,6.3
2019-05-02T03:00:11.352Z,6.3
2019-05-02T03:01:03.581Z,6.3
2019-05-02T03:02:12.363Z,6.3
2019-05-02T03:03:03.537Z,6.3
2019-05-02T03:04:12.462Z,6.3
2019-05-02T03:05:03.244Z,6.3
2019-05-02T03:06:08.574Z,6.3
2019-05-02T03:07:03.447Z,6.3
2019-05-02T03:08:07.426Z,6.3
2019-05-02T03:09:03.219Z,6.3
2019-05-02T03:10:08.713Z,6.3
2019-05-02T03:11:03.215Z,6.3
2019-05-02T03:12:04.856Z,6.3
2019-05-02T03:13:03.081Z,6.3
2019-05-02T03:14:09.946Z,6.3
2019-05-02T03:15:02.677Z,6.3
2019-05-02T03:16:09.588Z,6.3
2019-05-02T03:17:03.107Z,6.3
2019-05-02T03:18:04.000Z,6.3
2019-05-02T03:19:03.643Z,6.3
2019-05-02T03:20:04.122Z,6.3
2019-05-02T03:21:03.569Z,6.3
2019-05-02T03:22:04.369Z,6.3
2019-05-02T03:23:03.777Z,6.3
2019-05-02T03:24:06.214Z,6.3
2019-05-02T03:25:03.971Z,6.3
2019-05-02T03:26:17.070Z,6.3
2019-05-02T03:27:03.707Z,6.3
2019-05-02T03:28:03.363Z,6.2
2019-05-02T03:29:03.717Z,6.2
2019-05-02T03:30:03.679Z,6.2
2019-05-02T03:31:29.424Z,6.2
2019-05-02T03:32:34.860Z,6.1
2019-05-02T03:33:12.682Z,6.1
2019-05-02T03:34:03.369Z,6.1
2019-05-02T03:35:03.461Z,6.1
2019-05-02T03:36:03.046Z,6.1
2019-05-02T03:37:14.095Z,6.1
2019-05-02T03:38:03.123Z,6
2019-05-02T03:39:17.507Z,6
2019-05-02T03:40:04.028Z,0
2019-05-02T03:41:03.062Z,6.1
2019-05-02T03:42:05.327Z,6.1
2019-05-02T03:43:03.687Z,6.1
2019-05-02T03:44:25.290Z,6.2
2019-05-02T03:45:05.647Z,6.2
2019-05-02T03:46:02.931Z,6.3
2019-05-02T03:47:05.392Z,6.3
2019-05-02T03:48:03.859Z,6.3
2019-05-02T03:49:10.072Z,6.3
2019-05-02T03:50:03.774Z,6.3
2019-05-02T03:51:19.078Z,6.3
2019-05-02T03:52:06.264Z,6.2
2019-05-02T03:53:03.447Z,6.2
2019-05-02T03:54:10.696Z,6.1
2019-05-02T03:55:03.517Z,6.1
2019-05-02T03:56:14.217Z,6.1
2019-05-02T03:57:03.443Z,6.1
2019-05-02T03:58:16.889Z,6.2
2019-05-02T03:59:03.039Z,6.2
2019-05-02T04:00:03.289Z,6.2
2019-05-02T04:01:04.167Z,6.2
2019-05-02T04:02:03.202Z,6.2
2019-05-02T04:03:02.849Z,6.2
2019-05-02T04:04:02.695Z,6.2
2019-05-02T04:05:04.038Z,6.2
2019-05-02T04:06:04.033Z,6.2
2019-05-02T04:07:03.688Z,6.3
2019-05-02T04:08:02.755Z,6.3
2019-05-02T04:09:03.678Z,6.3
2019-05-02T04:10:03.926Z,6.3
2019-05-02T04:11:02.994Z,6.3
2019-05-02T04:12:03.087Z,6.3
2019-05-02T04:13:03.669Z,6.3
2019-05-02T04:15:03.930Z,6.3
2019-05-02T04:16:17.632Z,6.3
2019-05-02T04:17:03.450Z,6.3
2019-05-02T04:18:15.602Z,6.4
2019-05-02T04:19:03.653Z,6.4
2019-05-02T04:20:12.808Z,6.4
2019-05-02T04:21:03.611Z,6.4
2019-05-02T04:22:12.308Z,6.3
2019-05-02T04:23:03.557Z,6.4
2019-05-02T04:24:16.209Z,6.4
2019-05-02T04:25:06.714Z,6.4
2019-05-02T04:26:14.296Z,6.4
2019-05-02T04:27:03.251Z,6.4
2019-05-02T04:28:11.846Z,6.4
2019-05-02T04:29:03.109Z,6.4
2019-05-02T04:30:14.581Z,6.4
2019-05-02T04:31:03.032Z,6.4
2019-05-02T04:32:14.597Z,6.4
2019-05-02T04:33:03.068Z,6.4
2019-05-02T04:34:17.980Z,6.4
2019-05-02T04:35:02.964Z,6.4
2019-05-02T04:36:17.800Z,6.4
2019-05-02T04:37:04.419Z,6.4
2019-05-02T04:38:30.928Z,6.4
2019-05-02T04:39:21.167Z,6.4
2019-05-02T04:40:12.555Z,6.4
2019-05-02T04:41:03.534Z,6.4
2019-05-02T04:42:22.848Z,6.4
2019-05-02T04:43:11.772Z,6.4
2019-05-02T04:44:02.071Z,6.5
2019-05-02T04:45:38.340Z,6.5
2019-05-02T04:47:21.655Z,6.5
2019-05-02T04:48:04.339Z,6.6
2019-05-02T04:49:03.206Z,6.6
2019-05-02T04:50:19.696Z,6.6
2019-05-02T04:51:20.054Z,6.6
2019-05-02T04:52:14.749Z,6.6
2019-05-02T04:53:03.296Z,6.6
2019-05-02T04:54:03.024Z,6.6
2019-05-02T04:55:29.810Z,6.6
2019-05-02T04:56:10.969Z,6.6
2019-05-02T04:57:03.026Z,6.6
2019-05-02T04:58:02.864Z,6.6
2019-05-02T04:59:22.842Z,6.6
2019-05-02T05:00:12.155Z,6.7
2019-05-02T05:01:03.647Z,6.7
2019-05-02T05:02:02.881Z,6.7
2019-05-02T05:03:18.021Z,6.8
2019-05-02T05:04:03.573Z,6.8
2019-05-02T05:05:03.711Z,6.8
2019-05-02T05:06:12.574Z,6.8
2019-05-02T05:07:03.934Z,6.8
2019-05-02T05:08:03.680Z,6.9
2019-05-02T05:09:14.591Z,6.9
2019-05-02T05:10:03.862Z,7.3
2019-05-02T05:11:03.799Z,7.4
2019-05-02T05:12:03.487Z,7.4
2019-05-02T05:13:03.580Z,7.6
2019-05-02T05:14:03.463Z,8
2019-05-02T05:15:03.276Z,7.9
2019-05-02T05:16:15.759Z,7.8
2019-05-02T05:17:03.488Z,7.8
2019-05-02T05:18:14.139Z,7.8
2019-05-02T05:19:03.332Z,7.8
2019-05-02T05:20:15.751Z,7.8
2019-05-02T05:21:03.306Z,7.9
2019-05-02T05:22:11.844Z,7.9
2019-05-02T05:23:03.306Z,8
2019-05-02T05:24:02.946Z,8.1
2019-05-02T05:25:02.988Z,7.9
2019-05-02T05:26:07.429Z,7.9
2019-05-02T05:27:03.070Z,8.1
2019-05-02T05:28:09.130Z,8.2
2019-05-02T05:29:03.126Z,8.1
2019-05-02T05:30:18.462Z,8.2
2019-05-02T05:31:02.898Z,8.1
2019-05-02T05:32:10.292Z,8.1
2019-05-02T05:33:02.804Z,8.1
2019-05-02T05:34:03.136Z,8.2
2019-05-02T05:35:13.006Z,8.3
2019-05-02T05:36:03.424Z,8.3
2019-05-02T05:37:13.184Z,8.4
2019-05-02T05:38:03.614Z,8.5
2019-05-02T05:39:11.875Z,8.4
2019-05-02T05:40:03.386Z,8.4
2019-05-02T05:41:16.531Z,8.4
2019-05-02T05:42:03.686Z,8.6
2019-05-02T05:43:20.398Z,8.6
2019-05-02T05:44:03.655Z,8.6
2019-05-02T05:45:13.593Z,9
2019-05-02T05:46:13.343Z,8.9
2019-05-02T05:47:03.570Z,8.9
2019-05-02T05:48:03.425Z,9
2019-05-02T05:49:03.400Z,9.1
2019-05-02T05:50:03.406Z,8.9
2019-05-02T05:51:03.296Z,8.8
2019-05-02T05:52:04.184Z,8.9
2019-05-02T05:53:03.182Z,9.6
2019-05-02T05:54:03.463Z,9.6
2019-05-02T05:55:05.240Z,9.4
2019-05-02T05:56:03.247Z,9.3
2019-05-02T05:57:03.065Z,9.4
2019-05-02T05:58:18.215Z,9.4
2019-05-02T05:59:02.884Z,9.3
2019-05-02T06:00:17.325Z,9.3
2019-05-02T06:01:03.163Z,9.4
2019-05-02T06:02:14.543Z,9.7
2019-05-02T06:03:14.291Z,9.7
2019-05-02T06:04:03.713Z,9.5
2019-05-02T06:05:04.029Z,9.5
2019-05-02T06:06:03.716Z,9.6
2019-05-02T06:07:03.490Z,9.5
2019-05-02T06:08:02.943Z,9.6
2019-05-02T06:09:03.799Z,9.7
2019-05-02T06:10:09.980Z,9.8
2019-05-02T06:11:03.377Z,9.6
2019-05-02T06:12:04.167Z,9.5
2019-05-02T06:13:12.836Z,9.6
2019-05-02T06:14:03.182Z,9.6
2019-05-02T06:15:03.971Z,9.6
2019-05-02T06:16:03.898Z,9.6
2019-05-02T06:17:03.438Z,9.5
2019-05-02T06:18:06.216Z,9.5
2019-05-02T06:19:03.301Z,9.6
2019-05-02T06:20:03.285Z,9.6
2019-05-02T06:21:10.824Z,9.6
2019-05-02T06:22:03.195Z,9.5
2019-05-02T06:23:03.175Z,9.5
2019-05-02T06:24:03.000Z,9.6
2019-05-02T06:25:10.362Z,9.6
2019-05-02T06:26:15.281Z,9.8
2019-05-02T06:27:02.912Z,9.8
2019-05-02T06:28:07.031Z,9.9
2019-05-02T06:29:03.148Z,9.9
2019-05-02T06:30:03.754Z,10
2019-05-02T06:31:08.786Z,10.1
2019-05-02T06:32:03.833Z,10.3
2019-05-02T06:33:03.782Z,10.4
2019-05-02T06:34:08.498Z,10.4
2019-05-02T06:35:03.849Z,10.8
2019-05-02T06:36:03.616Z,11.1
2019-05-02T06:37:03.375Z,11.4
2019-05-02T06:38:03.181Z,11.6
2019-05-02T06:39:03.362Z,11.4
2019-05-02T06:40:09.560Z,11.3
2019-05-02T06:41:03.288Z,11.1
2019-05-02T06:42:03.387Z,11.1
2019-05-02T06:43:11.283Z,11.1
2019-05-02T06:44:03.304Z,10.9
2019-05-02T06:45:03.067Z,11.1
2019-05-02T06:46:21.576Z,11.3
2019-05-02T06:47:05.817Z,11.8
2019-05-02T06:48:03.446Z,11.8
2019-05-02T06:49:03.238Z,12.6
2019-05-02T06:50:03.624Z,12.5
2019-05-02T06:51:03.363Z,13.1
2019-05-02T06:52:03.061Z,13
2019-05-02T06:53:11.082Z,12.6
2019-05-02T06:54:02.864Z,12.3
2019-05-02T06:55:03.135Z,12.1
2019-05-02T06:56:03.299Z,11.8
2019-05-02T06:57:03.236Z,11.8
2019-05-02T06:58:08.429Z,11.9
2019-05-02T06:59:03.215Z,11.8
2019-05-02T07:00:03.087Z,11.8
2019-05-02T07:01:03.053Z,11.8
2019-05-02T07:02:02.815Z,11.9
2019-05-02T07:03:11.526Z,11.9
2019-05-02T07:04:04.630Z,11.8
2019-05-02T07:05:04.088Z,11.8
2019-05-02T07:06:07.896Z,11.8
2019-05-02T07:07:04.073Z,11.9
2019-05-02T07:08:14.065Z,11.9
2019-05-02T07:09:03.865Z,11.9
2019-05-02T07:10:03.633Z,11.9
2019-05-02T07:11:03.572Z,11.9
2019-05-02T07:12:03.403Z,11.9
2019-05-02T07:13:15.224Z,12.1
2019-05-02T07:14:18.426Z,12.2
2019-05-02T07:15:03.993Z,12.2
2019-05-02T07:16:03.779Z,12.3
2019-05-02T07:17:06.080Z,12.3
2019-05-02T07:18:12.181Z,12.4
2019-05-02T07:19:03.366Z,12.6
2019-05-02T07:20:05.522Z,12.5
2019-05-02T07:21:03.469Z,12.6
2019-05-02T07:22:04.706Z,12.6
2019-05-02T07:23:03.213Z,12.6
2019-05-02T07:24:03.003Z,12.8
2019-05-02T07:25:09.027Z,12.9
2019-05-02T07:26:02.773Z,12.9
2019-05-02T07:27:03.438Z,12.9
2019-05-02T07:28:10.670Z,12.9
2019-05-02T07:29:02.968Z,13
2019-05-02T07:30:02.824Z,13.1
2019-05-02T07:31:13.853Z,13.1
2019-05-02T07:32:03.829Z,12.9
2019-05-02T07:33:03.588Z,12.9
2019-05-02T07:34:02.921Z,12.9
2019-05-02T07:35:03.629Z,12.9
2019-05-02T07:36:03.674Z,13
2019-05-02T07:37:13.775Z,13.3
2019-05-02T07:38:04.009Z,13.3
2019-05-02T07:39:06.494Z,13.3
2019-05-02T07:40:03.320Z,13.4
2019-05-02T07:41:03.450Z,13.3
2019-05-02T07:42:08.037Z,13.3
2019-05-02T07:43:03.486Z,13.3
2019-05-02T07:44:04.590Z,13.4
2019-05-02T07:45:10.725Z,13.4
2019-05-02T07:46:03.328Z,13.6
2019-05-02T07:47:04.865Z,13.6
2019-05-02T07:48:03.326Z,13.6
2019-05-02T07:49:03.511Z,13.8
2019-05-02T07:50:11.731Z,13.8
2019-05-02T07:51:03.360Z,14.2
2019-05-02T07:52:03.139Z,14.3
2019-05-02T07:53:12.154Z,14.4
2019-05-02T07:54:03.072Z,14.4
2019-05-02T07:55:10.258Z,14.6
2019-05-02T07:56:03.297Z,14.6
2019-05-02T07:57:03.352Z,14.6
2019-05-02T07:58:08.361Z,14.9
2019-05-02T07:59:03.062Z,15.1
2019-05-02T08:00:03.678Z,15.2
2019-05-02T08:01:02.567Z,15.4
2019-05-02T08:02:04.368Z,15.3
2019-05-02T08:03:05.315Z,15.3
2019-05-02T08:04:12.894Z,15.4
2019-05-02T08:05:03.912Z,15.5
2019-05-02T08:06:03.857Z,15.5
2019-05-02T08:07:03.237Z,15.6
2019-05-02T08:08:03.627Z,15.6
2019-05-02T08:09:09.354Z,15.9
2019-05-02T08:10:03.768Z,16
2019-05-02T08:11:03.445Z,16
2019-05-02T08:12:03.657Z,15.9
2019-05-02T08:13:03.497Z,15.9
2019-05-02T08:14:03.242Z,16.1
2019-05-02T08:15:15.061Z,16.3
2019-05-02T08:16:03.300Z,16.1
2019-05-02T08:17:16.761Z,16.3
2019-05-02T08:18:03.097Z,16.4
2019-05-02T08:19:06.971Z,16.5
2019-05-02T08:20:08.802Z,16.3
2019-05-02T08:21:03.042Z,16.5
2019-05-02T08:22:14.783Z,16.7
2019-05-02T08:23:03.048Z,16.6
2019-05-02T08:24:03.875Z,16.6
2019-05-02T08:25:03.727Z,16.6
2019-05-02T08:26:03.264Z,16.8
2019-05-02T08:27:03.086Z,16.9
2019-05-02T08:28:09.893Z,17
2019-05-02T08:29:03.058Z,17.1
2019-05-02T08:30:06.044Z,17.2
2019-05-02T08:31:03.711Z,17.2
2019-05-02T08:32:02.969Z,17.2
2019-05-02T08:33:03.639Z,17.2
2019-05-02T08:34:15.977Z,17.2
2019-05-02T08:35:03.638Z,17.4
2019-05-02T08:36:03.701Z,17.5
2019-05-02T08:37:05.115Z,17.5
2019-05-02T08:38:03.533Z,17.6
2019-05-02T08:39:03.187Z,17.4
2019-05-02T08:40:11.929Z,17.4
2019-05-02T08:41:03.558Z,17.5
2019-05-02T08:42:03.040Z,17.6
2019-05-02T08:43:11.026Z,17.6
2019-05-02T08:44:03.208Z,17.8
2019-05-02T08:45:03.361Z,17.8
2019-05-02T08:46:03.030Z,17.8
2019-05-02T08:47:03.083Z,17.8
2019-05-02T08:48:06.768Z,17.9
2019-05-02T08:49:02.611Z,18.1
2019-05-02T08:50:02.881Z,18.1
2019-05-02T08:51:03.689Z,17.9
2019-05-02T08:52:03.668Z,17.9
2019-05-02T08:53:03.451Z,18.2
2019-05-02T08:54:03.826Z,18.2
2019-05-02T08:55:10.900Z,18.3
2019-05-02T08:56:03.466Z,18.2
2019-05-02T08:57:03.462Z,18.1
2019-05-02T08:58:15.720Z,18.3
2019-05-02T08:59:03.334Z,18.3
2019-05-02T09:00:03.838Z,18.3
2019-05-02T09:01:03.089Z,18.3
2019-05-02T09:02:03.752Z,18.3
2019-05-02T09:03:04.959Z,18.4
2019-05-02T09:04:03.098Z,18.3
2019-05-02T09:05:06.162Z,18.4
2019-05-02T09:06:06.596Z,18.4
2019-05-02T09:07:03.387Z,18.4
2019-05-02T09:08:02.923Z,18.6
2019-05-02T09:09:03.016Z,18.7
2019-05-02T09:10:07.986Z,18.8
2019-05-02T09:11:02.782Z,18.8
2019-05-02T09:12:15.247Z,18.8
2019-05-02T09:13:02.989Z,19
2019-05-02T09:14:02.858Z,19
2019-05-02T09:15:02.934Z,18.8
2019-05-02T09:16:06.244Z,19.1
2019-05-02T09:17:16.600Z,18.9
2019-05-02T09:18:03.921Z,19.1
2019-05-02T09:19:03.258Z,19.1
2019-05-02T09:20:20.701Z,19.2
2019-05-02T09:21:03.375Z,19.2
2019-05-02T09:22:16.570Z,19.4
2019-05-02T09:23:03.423Z,19.4
2019-05-02T09:24:03.585Z,19.6
2019-05-02T09:25:03.296Z,19.5
2019-05-02T09:26:03.204Z,19.3
2019-05-02T09:27:03.738Z,19.4
2019-05-02T09:28:03.495Z,19.6
2019-05-02T09:29:05.732Z,19.5
2019-05-02T09:30:03.300Z,19.4
2019-05-02T09:31:07.184Z,19.3
2019-05-02T09:32:03.066Z,19.3
2019-05-02T09:33:06.944Z,19.4
2019-05-02T09:34:03.000Z,19.8
2019-05-02T09:35:06.500Z,19.8
2019-05-02T09:36:03.091Z,20
2019-05-02T09:37:02.964Z,20.1
2019-05-02T09:38:02.706Z,20.1
2019-05-02T09:39:03.097Z,19.9
2019-05-02T09:40:16.471Z,19.9
2019-05-02T09:41:19.588Z,19.9
2019-05-02T09:42:15.102Z,20
2019-05-02T09:43:05.018Z,20.1
2019-05-02T09:44:03.569Z,20.3
2019-05-02T09:45:03.713Z,20.3
2019-05-02T09:46:16.438Z,20.6
2019-05-02T09:47:03.679Z,20.3
2019-05-02T09:48:08.426Z,20.1
2019-05-02T09:49:16.513Z,20.2
2019-05-02T09:50:03.844Z,20.3
2019-05-02T09:51:17.535Z,20.4
2019-05-02T09:52:03.642Z,20.3
2019-05-02T09:53:03.556Z,20.4
2019-05-02T09:54:06.578Z,20.6
2019-05-02T09:55:03.507Z,20.7
2019-05-02T09:56:03.461Z,20.7
2019-05-02T09:57:03.069Z,20.6
2019-05-02T09:58:02.975Z,20.8
2019-05-02T09:59:30.417Z,21.1
2019-05-02T10:00:03.587Z,21.2
2019-05-02T10:01:03.088Z,21.3
2019-05-02T10:02:03.186Z,20.9
2019-05-02T10:03:03.359Z,20.9
2019-05-02T10:04:03.317Z,20.9
2019-05-02T10:05:03.410Z,20.9
2019-05-02T10:06:03.480Z,20.9
2019-05-02T10:07:03.331Z,20.9
2019-05-02T10:08:13.201Z,20.7
2019-05-02T10:09:03.029Z,20.8
2019-05-02T10:10:06.852Z,20.7
2019-05-02T10:11:03.861Z,20.8
2019-05-02T10:12:02.863Z,20.9
2019-05-02T10:13:03.012Z,21.1
2019-05-02T10:14:02.944Z,21.3
2019-05-02T10:15:03.963Z,21.3
2019-05-02T10:16:02.719Z,21.3
2019-05-02T10:17:07.817Z,21.3
2019-05-02T10:18:14.480Z,21.8
2019-05-02T10:19:13.570Z,21.3
2019-05-02T10:20:02.890Z,20.9
2019-05-02T10:21:12.562Z,21.1
2019-05-02T10:22:02.723Z,21
2019-05-02T10:23:03.617Z,20.7
2019-05-02T10:24:04.011Z,20.3
2019-05-02T10:25:03.966Z,19.6
2019-05-02T10:26:03.641Z,19.3
2019-05-02T10:27:08.774Z,19.1
2019-05-02T10:28:03.561Z,18.6
2019-05-02T10:29:03.679Z,18.6
2019-05-02T10:30:15.866Z,19
2019-05-02T10:31:03.662Z,19.1
2019-05-02T10:32:16.527Z,19
2019-05-02T10:33:03.592Z,19.3
2019-05-02T10:34:03.460Z,19.1
2019-05-02T10:35:03.417Z,19
2019-05-02T10:36:03.312Z,19.5
2019-05-02T10:37:03.397Z,20.3
2019-05-02T10:38:03.371Z,20.5
2019-05-02T10:39:03.171Z,20.5
2019-05-02T10:40:12.374Z,20.5
2019-05-02T10:41:05.045Z,20.4
2019-05-02T10:42:02.997Z,20.4
2019-05-02T10:43:03.090Z,20.4
2019-05-02T10:44:03.198Z,20
2019-05-02T10:45:07.591Z,19.8
2019-05-02T10:46:03.560Z,19.6
2019-05-02T10:47:03.595Z,19.6
2019-05-02T10:48:03.047Z,0
2019-05-02T10:49:03.022Z,19.7
2019-05-02T10:50:03.538Z,20.3
2019-05-02T10:51:03.505Z,20.4
2019-05-02T10:52:03.566Z,20.3
2019-05-02T10:53:15.873Z,20.6
2019-05-02T10:54:03.589Z,20.4
2019-05-02T10:55:03.712Z,19.9
2019-05-02T10:56:03.422Z,19.8
2019-05-02T10:57:03.307Z,19.4
2019-05-02T10:58:35.857Z,19.3
2019-05-02T11:00:03.454Z,19.3
2019-05-02T11:01:03.450Z,19.1
2019-05-02T11:02:03.633Z,19.4
2019-05-02T11:03:02.972Z,20.1
2019-05-02T11:04:03.401Z,20.4
2019-05-02T11:05:03.149Z,20.3
2019-05-02T11:06:07.986Z,20.7
2019-05-02T11:07:02.905Z,20.6
2019-05-02T11:08:06.655Z,20.4
2019-05-02T11:09:06.578Z,20.6
2019-05-02T11:10:07.077Z,20.3
2019-05-02T11:11:06.504Z,20.4
2019-05-02T11:12:02.872Z,20.1
2019-05-02T11:13:03.847Z,19.5
2019-05-02T11:14:06.094Z,19.3
2019-05-02T11:15:02.935Z,19.4
2019-05-02T11:16:03.606Z,19.3
2019-05-02T11:17:03.476Z,19.6
2019-05-02T11:18:03.655Z,20.2
2019-05-02T11:19:03.471Z,20.7
2019-05-02T11:20:03.377Z,20.8
2019-05-02T11:21:08.464Z,21.1
2019-05-02T11:22:03.581Z,21.3
2019-05-02T11:23:03.437Z,21.3
2019-05-02T11:24:03.077Z,21.3
2019-05-02T11:25:03.655Z,21.4
2019-05-02T11:26:03.535Z,20.9
2019-05-02T11:27:03.240Z,19.9
2019-05-02T11:28:07.369Z,19.4
2019-05-02T11:29:03.480Z,19.1
2019-05-02T11:30:03.384Z,19.2
2019-05-02T11:31:12.037Z,19.1
2019-05-02T11:32:03.177Z,19.3
2019-05-02T11:33:03.350Z,19.3
2019-05-02T11:34:03.229Z,19
2019-05-02T11:35:03.423Z,19.2
2019-05-02T11:36:03.241Z,19.2
2019-05-02T11:37:02.939Z,19.2
2019-05-02T11:38:02.818Z,19.1
2019-05-02T11:39:32.727Z,19.1
2019-05-02T11:40:08.228Z,19.1
2019-05-02T11:41:03.790Z,19.5
2019-05-02T11:42:02.934Z,20
2019-05-02T11:43:07.018Z,20.1
2019-05-02T11:44:13.394Z,20.1
2019-05-02T11:45:03.706Z,20.2
2019-05-02T11:46:07.513Z,20.4
2019-05-02T11:47:03.562Z,20.7
2019-05-02T11:48:13.979Z,21.1
2019-05-02T11:49:03.457Z,21.5
2019-05-02T11:50:03.344Z,21.3
2019-05-02T11:51:16.290Z,20.5
2019-05-02T11:52:04.891Z,20.3
2019-05-02T11:53:28.410Z,20
2019-05-02T11:54:09.523Z,19.7
2019-05-02T11:55:03.507Z,19.4
2019-05-02T11:56:10.979Z,19.6
2019-05-02T11:57:03.229Z,19.6
2019-05-02T11:58:12.487Z,19.3
2019-05-02T11:59:03.986Z,19.8
2019-05-02T12:00:09.083Z,19.8
2019-05-02T12:01:05.641Z,20.3
2019-05-02T12:02:03.758Z,20.6
2019-05-02T12:03:03.794Z,20.2
2019-05-02T12:04:16.711Z,20
2019-05-02T12:05:03.534Z,19.9
2019-05-02T12:06:19.199Z,19.8
2019-05-02T12:07:05.141Z,19.9
2019-05-02T12:08:11.650Z,19.7
2019-05-02T12:09:03.595Z,19.5
2019-05-02T12:10:04.870Z,19.3
2019-05-02T12:11:08.288Z,19.2
2019-05-02T12:12:03.331Z,19.1
2019-05-02T12:13:15.728Z,18.9
2019-05-02T12:14:02.954Z,19
2019-05-02T12:15:03.163Z,18.8
2019-05-02T12:16:03.478Z,18.6
2019-05-02T12:17:03.501Z,18.8
2019-05-02T12:18:03.195Z,18.9
2019-05-02T12:19:14.897Z,18.9
2019-05-02T12:20:03.406Z,18.8
2019-05-02T12:21:03.146Z,18.9
2019-05-02T12:22:16.567Z,18.9
2019-05-02T12:23:03.837Z,19.4
2019-05-02T12:24:03.084Z,19.8
2019-05-02T12:25:03.966Z,20.3
2019-05-02T12:26:03.834Z,20.5
2019-05-02T12:27:03.888Z,20.6
2019-05-02T12:28:03.583Z,20.4
2019-05-02T12:29:03.541Z,20.6
2019-05-02T12:30:03.742Z,20.7
2019-05-02T12:31:03.592Z,20.6
2019-05-02T12:32:03.569Z,20.2
2019-05-02T12:33:03.664Z,19.7
2019-05-02T12:34:03.456Z,19.3
2019-05-02T12:35:47.835Z,19.1
2019-05-02T12:37:03.557Z,18.8
2019-05-02T12:38:03.441Z,19.2
2019-05-02T12:39:03.323Z,19.6
2019-05-02T12:40:02.998Z,20.1
2019-05-02T12:41:03.155Z,20.3
2019-05-02T12:42:04.771Z,20.6
2019-05-02T12:44:02.935Z,21.1
2019-05-02T12:45:03.116Z,21.1
2019-05-02T12:46:03.712Z,21.1
2019-05-02T12:47:02.926Z,20.8
2019-05-02T12:48:02.893Z,20.6
2019-05-02T12:49:03.179Z,20.6
2019-05-02T12:50:03.950Z,20.9
2019-05-02T12:51:03.779Z,20.9
2019-05-02T12:52:03.874Z,21
2019-05-02T12:53:03.495Z,21.3
2019-05-02T12:54:03.648Z,21.4
2019-05-02T12:55:03.752Z,21.4
2019-05-02T12:56:03.614Z,21.3
2019-05-02T12:57:03.575Z,21.4
2019-05-02T12:58:03.836Z,21.6
2019-05-02T12:59:03.565Z,21.8
2019-05-02T13:00:03.511Z,21.9
2019-05-02T13:01:03.360Z,21.9
2019-05-02T13:02:03.431Z,21.8
2019-05-02T13:03:03.083Z,21.7
2019-05-02T13:04:03.263Z,21.3
2019-05-02T13:05:03.518Z,21.1
2019-05-02T13:06:03.275Z,21.1
2019-05-02T13:07:03.019Z,21.3
2019-05-02T13:08:03.064Z,21.5
2019-05-02T13:09:03.380Z,21.5
2019-05-02T13:10:03.149Z,21.8
2019-05-02T13:11:07.142Z,21.8
2019-05-02T13:12:03.098Z,21.8
2019-05-02T13:13:03.090Z,21.8
2019-05-02T13:14:04.155Z,21.7
2019-05-02T13:15:03.352Z,21.7
2019-05-02T13:16:04.374Z,21.4
2019-05-02T13:17:06.282Z,20.9
2019-05-02T13:18:03.751Z,20.6
2019-05-02T13:19:06.556Z,20.6
2019-05-02T13:20:04.616Z,20.8
2019-05-02T13:21:03.049Z,21
2019-05-02T13:22:03.717Z,21.1
2019-05-02T13:23:03.642Z,21.1
2019-05-02T13:24:16.258Z,21.3
2019-05-02T13:25:03.380Z,21.4
2019-05-02T13:26:21.947Z,21.6
2019-05-02T13:27:04.694Z,21.8
2019-05-02T13:28:03.294Z,21.8
2019-05-02T13:29:03.336Z,21.8
2019-05-02T13:30:03.660Z,21.4
2019-05-02T13:31:03.150Z,21.4
2019-05-02T13:32:03.155Z,21.6
2019-05-02T13:33:03.301Z,21.5
2019-05-02T13:34:14.693Z,21.3
2019-05-02T13:35:02.963Z,21.2
2019-05-02T13:36:02.844Z,20.5
2019-05-02T13:37:03.221Z,20.2
2019-05-02T13:38:03.040Z,20